createdAt,value
2022-12-25T00:03:59.191Z,8.81
2022-12-25T00:09:07.935Z,8.88
2022-12-25T00:14:17.064Z,8.88
2022-12-25T00:19:26.063Z,8.94
2022-12-25T00:24:35.011Z,8.94
2022-12-25T00:29:44.138Z,8.88
2022-12-25T00:34:53.024Z,8.81
2022-12-25T00:40:02.014Z,8.88
2022-12-25T00:45:11.141Z,8.88
2022-12-25T00:50:20.055Z,8.94
2022-12-25T00:55:29.166Z,8.94
2022-12-25T01:00:38.489Z,9
2022-12-25T01:05:47.528Z,9.06
2022-12-25T01:10:56.615Z,9
2022-12-25T01:16:05.408Z,9
2022-12-25T01:21:14.361Z,9
2022-12-25T01:26:23.405Z,9
2022-12-25T01:31:35.650Z,9
2022-12-25T01:36:44.537Z,8.94
2022-12-25T01:41:53.711Z,8.94
2022-12-25T01:47:02.513Z,8.94
2022-12-25T01:52:11.798Z,8.88
2022-12-25T01:57:20.654Z,8.88
2022-12-25T02:02:29.573Z,8.94
2022-12-25T02:07:38.689Z,8.94
2022-12-25T02:12:47.641Z,8.88
2022-12-25T02:17:56.862Z,8.88
2022-12-25T02:23:05.776Z,8.81
2022-12-25T02:28:14.765Z,8.75
2022-12-25T02:33:23.734Z,8.81
2022-12-25T02:38:32.709Z,8.75
2022-12-25T02:43:41.625Z,8.69
2022-12-25T02:48:50.762Z,8.75
2022-12-25T02:53:59.823Z,8.75
2022-12-25T02:59:08.736Z,8.75
2022-12-25T03:04:17.728Z,8.81
2022-12-25T03:09:26.765Z,8.88
2022-12-25T03:14:35.815Z,8.88
2022-12-25T03:19:44.958Z,8.94
2022-12-25T03:24:53.900Z,8.94
2022-12-25T03:30:05.678Z,8.88
2022-12-25T03:35:14.732Z,8.69
2022-12-25T03:45:22.109Z,8.38
2022-12-25T03:50:31.148Z,8.31
2022-12-25T03:55:40.032Z,8.38
2022-12-25T04:00:51.620Z,8.44
2022-12-25T04:05:58.227Z,8.44
2022-12-25T04:11:07.255Z,8.5
2022-12-25T04:16:16.444Z,8.56
2022-12-25T04:21:25.355Z,8.56
2022-12-25T04:26:34.430Z,8.5
2022-12-25T04:31:43.353Z,8.56
2022-12-25T04:36:52.297Z,8.63
2022-12-25T04:42:01.170Z,8.56
2022-12-25T04:47:11.586Z,8.63
2022-12-25T04:52:19.341Z,8.75
2022-12-25T04:57:28.416Z,8.81
2022-12-25T05:02:37.647Z,8.88
2022-12-25T05:07:49.285Z,8.88
2022-12-25T05:12:58.235Z,8.94
2022-12-25T05:18:07.260Z,8.94
2022-12-25T05:23:16.380Z,8.94
2022-12-25T05:28:25.304Z,8.94
2022-12-25T05:33:34.323Z,8.88
2022-12-25T05:38:43.297Z,8.88
2022-12-25T05:43:52.172Z,8.88
2022-12-25T05:49:01.094Z,8.94
2022-12-25T05:54:10.159Z,8.94
2022-12-25T05:59:19.064Z,8.94
2022-12-25T06:04:28.103Z,8.94
2022-12-25T06:09:37.163Z,8.94
2022-12-25T06:14:46.089Z,8.94
2022-12-25T06:19:55.193Z,8.94
2022-12-25T06:25:04.064Z,8.94
2022-12-25T06:40:09.413Z,8.88
2022-12-25T06:45:18.375Z,8.88
2022-12-25T06:50:27.436Z,8.88
2022-12-25T06:55:36.346Z,8.94
2022-12-25T07:00:45.244Z,8.88
2022-12-25T07:05:54.299Z,8.88
2022-12-25T07:11:03.119Z,8.88
2022-12-25T07:16:12.218Z,8.94
2022-12-25T07:21:21.131Z,8.88
2022-12-25T07:26:30.094Z,8.81
2022-12-25T07:31:39.078Z,8.69
2022-12-25T07:36:48.014Z,8.69
2022-12-25T07:41:57.234Z,8.69
2022-12-25T07:47:06.251Z,8.75
2022-12-25T07:52:15.261Z,8.81
2022-12-25T07:57:24.185Z,8.88
2022-12-25T08:02:33.828Z,8.88
2022-12-25T08:07:42.568Z,9.13
2022-12-25T08:12:51.439Z,9.19
2022-12-25T08:18:00.486Z,9.25
2022-12-25T08:23:09.484Z,9.31
2022-12-25T08:33:27.567Z,9.38
2022-12-25T08:38:36.549Z,9.44
2022-12-25T08:43:45.445Z,9.44
2022-12-25T08:48:54.376Z,9.56
2022-12-25T08:54:03.803Z,9.69
2022-12-25T08:59:12.901Z,9.88
2022-12-25T09:04:21.938Z,10.06
2022-12-25T09:09:30.912Z,10.19
2022-12-25T09:14:40.112Z,10.25
2022-12-25T09:19:49.075Z,10.25
2022-12-25T09:24:58.035Z,10.25
2022-12-25T09:30:07.007Z,10.31
2022-12-25T09:35:16.095Z,10.38
2022-12-25T09:40:24.895Z,10.38
2022-12-25T09:45:34.455Z,11.06
2022-12-25T09:50:43.882Z,11.75
2022-12-25T09:55:52.542Z,11.56
2022-12-25T10:01:01.557Z,11.63
2022-12-25T10:11:19.336Z,11.63
2022-12-25T10:16:28.205Z,11.75
2022-12-25T10:21:40.261Z,11.69
2022-12-25T10:26:49.496Z,11.81
2022-12-25T10:31:58.292Z,11.88
2022-12-25T10:37:07.310Z,11.94
2022-12-25T10:42:16.224Z,11.94
2022-12-25T10:47:25.157Z,12
2022-12-25T10:52:33.949Z,11.75
2022-12-25T10:57:42.780Z,11.63
2022-12-25T11:02:51.862Z,11.63
2022-12-25T11:08:00.794Z,11.69
2022-12-25T11:13:09.676Z,11.81
2022-12-25T11:18:18.766Z,12
2022-12-25T11:23:27.554Z,12
2022-12-25T11:28:36.622Z,11.94
2022-12-25T11:33:45.409Z,12
2022-12-25T11:38:54.465Z,12
2022-12-25T11:44:03.485Z,12.19
2022-12-25T11:49:12.697Z,12.25
2022-12-25T11:54:21.659Z,12.37
2022-12-25T11:59:30.704Z,12.56
2022-12-25T12:04:42.869Z,12.69
2022-12-25T12:09:48.819Z,12.88
2022-12-25T12:14:57.732Z,12.94
2022-12-25T12:20:06.768Z,12.94
2022-12-25T12:25:15.609Z,12.94
2022-12-25T12:30:24.643Z,12.88
2022-12-25T12:35:33.775Z,13.06
2022-12-25T12:40:43.104Z,13.56
2022-12-25T12:45:52.707Z,14
2022-12-25T12:51:01.498Z,14
2022-12-25T12:56:10.913Z,14.06
2022-12-25T13:01:20.267Z,14
2022-12-25T13:06:28.988Z,13.94
2022-12-25T13:11:38.002Z,14.06
2022-12-25T13:16:47.419Z,14.63
2022-12-25T13:21:56.366Z,14.56
2022-12-25T13:27:05.280Z,14.44
2022-12-25T13:37:23.876Z,14.87
2022-12-25T13:42:32.394Z,14.75
2022-12-25T13:47:40.883Z,14.31
2022-12-25T13:52:49.629Z,14
2022-12-25T13:57:58.256Z,13.75
2022-12-25T14:03:07.434Z,13.69
2022-12-25T14:08:16.230Z,13.5
2022-12-25T14:13:24.960Z,13.25
2022-12-25T14:18:34.013Z,13.13
2022-12-25T14:23:43.156Z,13.31
2022-12-25T14:28:52.247Z,13.44
2022-12-25T14:34:01.428Z,13.44
2022-12-25T14:39:12.815Z,13.25
2022-12-25T14:44:19.168Z,13
2022-12-25T14:49:27.998Z,12.81
2022-12-25T14:54:36.818Z,12.63
2022-12-25T14:59:45.762Z,12.5
2022-12-25T15:04:54.635Z,12.25
2022-12-25T15:10:46.837Z,12
2022-12-25T15:15:12.342Z,11.81
2022-12-25T15:20:21.235Z,11.56
2022-12-25T15:25:30.236Z,11.38
2022-12-25T15:30:39.497Z,11.19
2022-12-25T15:35:47.924Z,11
2022-12-25T15:40:57.157Z,10.94
2022-12-25T15:46:06.016Z,10.94
2022-12-25T15:51:15.122Z,11
2022-12-25T15:56:24.006Z,10.88
2022-12-25T16:01:33.090Z,10.81
2022-12-25T16:06:41.890Z,10.81
2022-12-25T16:11:50.856Z,10.81
2022-12-25T16:16:59.910Z,10.63
2022-12-25T16:22:08.797Z,10.44
2022-12-25T16:27:17.707Z,10.31
2022-12-25T16:32:26.652Z,10.19
2022-12-25T16:37:35.629Z,10
2022-12-25T16:42:44.497Z,9.94
2022-12-25T16:47:53.558Z,9.88
2022-12-25T16:53:02.467Z,9.88
2022-12-25T16:58:11.393Z,9.81
2022-12-25T17:03:20.536Z,9.69
2022-12-25T17:08:29.327Z,9.56
2022-12-25T17:13:38.217Z,9.44
2022-12-25T17:18:47.305Z,9.25
2022-12-25T17:24:01.617Z,9.25
2022-12-25T17:29:05.231Z,9.25
2022-12-25T17:34:14.077Z,9.25
2022-12-25T17:39:23.066Z,9.25
2022-12-25T17:44:31.975Z,9.25
2022-12-25T17:49:41.003Z,9.19
2022-12-25T17:54:49.941Z,9.19
2022-12-25T17:59:58.994Z,9.13
2022-12-25T18:05:07.946Z,8.94
2022-12-25T18:10:16.944Z,8.94
2022-12-25T18:15:26.036Z,9.19
2022-12-25T18:20:39.762Z,9.44
2022-12-25T18:25:44.205Z,9.5
2022-12-25T18:30:53.348Z,9.56
2022-12-25T18:36:02.286Z,9.63
2022-12-25T18:41:11.339Z,9.63
2022-12-25T18:46:20.572Z,9.63
2022-12-25T18:51:34.822Z,9.56
2022-12-25T18:56:38.507Z,9.5
2022-12-25T19:06:56.446Z,9.13
2022-12-25T19:12:05.335Z,9.13
2022-12-25T19:17:14.419Z,9.19
2022-12-25T19:22:23.598Z,9.19
2022-12-25T19:27:32.593Z,9.31
2022-12-25T19:32:41.860Z,9.56
2022-12-25T19:37:50.627Z,9.88
2022-12-25T19:42:59.683Z,10
2022-12-25T19:48:08.573Z,10
2022-12-25T19:53:17.628Z,10
2022-12-25T19:58:26.719Z,9.94
2022-12-25T20:03:38.790Z,9.94
2022-12-25T20:08:44.679Z,9.88
2022-12-25T20:13:53.632Z,9.88
2022-12-25T20:19:02.535Z,9.88
2022-12-25T20:24:11.688Z,9.81
2022-12-25T20:29:20.560Z,9.81
2022-12-25T20:34:29.732Z,9.81
2022-12-25T20:39:38.856Z,9.88
2022-12-25T20:44:47.871Z,9.88
2022-12-25T20:49:56.827Z,9.94
2022-12-25T20:55:05.932Z,9.94
2022-12-25T21:00:16.868Z,9.81
2022-12-25T21:05:23.996Z,9.69
2022-12-25T21:10:32.893Z,9.63
2022-12-25T21:15:41.970Z,9.69
2022-12-25T21:20:50.894Z,9.69
2022-12-25T21:25:59.833Z,9.75
2022-12-25T21:31:08.889Z,9.75
2022-12-25T21:36:20.853Z,9.81
2022-12-25T21:41:30.039Z,9.81
2022-12-25T21:46:38.904Z,9.88
2022-12-25T21:51:47.895Z,9.88
2022-12-25T21:56:56.844Z,9.88
2022-12-25T22:02:05.858Z,9.81
2022-12-25T22:07:14.677Z,9.69
2022-12-25T22:12:26.104Z,9.63
2022-12-25T22:17:32.350Z,9.56
2022-12-25T22:22:41.470Z,9.56
2022-12-25T22:27:50.407Z,9.63
2022-12-25T22:32:59.321Z,9.75
2022-12-25T22:38:08.502Z,9.88
2022-12-25T22:43:17.416Z,9.94
2022-12-25T22:48:26.367Z,9.94
2022-12-25T22:53:35.353Z,10
2022-12-25T22:58:44.379Z,10
2022-12-25T23:03:53.484Z,10.13
2022-12-25T23:09:02.428Z,10.19
2022-12-25T23:14:11.378Z,10.13
2022-12-25T23:19:20.276Z,10.06
2022-12-25T23:24:29.209Z,10.06
2022-12-25T23:29:38.172Z,10.06
2022-12-25T23:34:47.111Z,10
2022-12-25T23:39:56.036Z,9.94
2022-12-25T23:45:04.765Z,9.75
2022-12-25T23:50:13.872Z,9.69
2022-12-25T23:55:22.867Z,9.69
